sensor_id;sensor_type;location;lat;lon;timestamp;P1;durP1;ratioP1;P2;durP2;ratioP2
19907;SDS011;10116;53.112;7.356;2023-04-24T00:00:05;1.30;;;0.80;;
19907;SDS011;10116;53.112;7.356;2023-04-24T00:02:31;0.70;;;0.70;;
19907;SDS011;10116;53.112;7.356;2023-04-24T00:04:58;1.57;;;0.80;;
19907;SDS011;10116;53.112;7.356;2023-04-24T00:07:28;0.57;;;0.53;;
19907;SDS011;10116;53.112;7.356;2023-04-24T00:09:54;1.10;;;0.60;;
19907;SDS011;10116;53.112;7.356;2023-04-24T00:12:19;0.50;;;0.50;;
19907;SDS011;10116;53.112;7.356;2023-04-24T00:14:45;0.60;;;0.60;;
19907;SDS011;10116;53.112;7.356;2023-04-24T00:17:11;0.60;;;0.60;;
19907;SDS011;10116;53.112;7.356;2023-04-24T00:19:37;0.50;;;0.50;;
19907;SDS011;10116;53.112;7.356;2023-04-24T00:22:02;0.60;;;0.60;;
19907;SDS011;10116;53.112;7.356;2023-04-24T00:24:28;0.60;;;0.60;;
19907;SDS011;10116;53.112;7.356;2023-04-24T00:26:54;0.60;;;0.60;;
19907;SDS011;10116;53.112;7.356;2023-04-24T00:29:19;1.00;;;0.70;;
19907;SDS011;10116;53.112;7.356;2023-04-24T00:31:45;0.60;;;0.53;;
19907;SDS011;10116;53.112;7.356;2023-04-24T00:34:10;0.60;;;0.60;;
19907;SDS011;10116;53.112;7.356;2023-04-24T00:36:37;0.70;;;0.50;;
19907;SDS011;10116;53.112;7.356;2023-04-24T00:39:03;0.60;;;0.50;;
19907;SDS011;10116;53.112;7.356;2023-04-24T00:41:29;0.60;;;0.53;;
19907;SDS011;10116;53.112;7.356;2023-04-24T00:43:55;0.70;;;0.47;;
19907;SDS011;10116;53.112;7.356;2023-04-24T00:46:20;0.70;;;0.70;;
19907;SDS011;10116;53.112;7.356;2023-04-24T00:48:47;0.50;;;0.50;;
19907;SDS011;10116;53.112;7.356;2023-04-24T00:51:12;0.73;;;0.50;;
19907;SDS011;10116;53.112;7.356;2023-04-24T00:53:38;0.40;;;0.40;;
19907;SDS011;10116;53.112;7.356;2023-04-24T00:56:04;0.40;;;0.40;;
19907;SDS011;10116;53.112;7.356;2023-04-24T00:58:30;0.53;;;0.43;;
19907;SDS011;10116;53.112;7.356;2023-04-24T01:00:56;0.40;;;0.40;;
19907;SDS011;10116;53.112;7.356;2023-04-24T01:03:24;0.50;;;0.50;;
19907;SDS011;10116;53.112;7.356;2023-04-24T01:05:54;0.50;;;0.40;;
19907;SDS011;10116;53.112;7.356;2023-04-24T01:08:20;0.40;;;0.40;;
19907;SDS011;10116;53.112;7.356;2023-04-24T01:10:49;0.40;;;0.40;;
19907;SDS011;10116;53.112;7.356;2023-04-24T01:13:17;1.10;;;0.60;;
19907;SDS011;10116;53.112;7.356;2023-04-24T01:15:44;0.50;;;0.50;;
19907;SDS011;10116;53.112;7.356;2023-04-24T01:18:10;0.50;;;0.40;;
19907;SDS011;10116;53.112;7.356;2023-04-24T01:20:36;0.60;;;0.50;;
19907;SDS011;10116;53.112;7.356;2023-04-24T01:23:05;0.50;;;0.33;;
19907;SDS011;10116;53.112;7.356;2023-04-24T01:25:31;0.40;;;0.30;;
19907;SDS011;10116;53.112;7.356;2023-04-24T01:27:57;0.50;;;0.50;;
19907;SDS011;10116;53.112;7.356;2023-04-24T01:30:23;1.33;;;0.50;;
19907;SDS011;10116;53.112;7.356;2023-04-24T01:32:49;0.60;;;0.53;;
19907;SDS011;10116;53.112;7.356;2023-04-24T01:35:15;0.40;;;0.40;;
19907;SDS011;10116;53.112;7.356;2023-04-24T01:37:40;0.40;;;0.33;;
19907;SDS011;10116;53.112;7.356;2023-04-24T01:40:06;0.50;;;0.40;;
19907;SDS011;10116;53.112;7.356;2023-04-24T01:42:33;0.83;;;0.57;;
19907;SDS011;10116;53.112;7.356;2023-04-24T01:44:59;0.50;;;0.50;;
19907;SDS011;10116;53.112;7.356;2023-04-24T01:47:27;0.67;;;0.40;;
19907;SDS011;10116;53.112;7.356;2023-04-24T01:49:53;0.40;;;0.40;;
19907;SDS011;10116;53.112;7.356;2023-04-24T01:52:18;1.13;;;0.50;;
19907;SDS011;10116;53.112;7.356;2023-04-24T01:54:44;0.40;;;0.40;;
19907;SDS011;10116;53.112;7.356;2023-04-24T01:57:10;0.50;;;0.40;;
19907;SDS011;10116;53.112;7.356;2023-04-24T01:59:36;0.47;;;0.30;;
19907;SDS011;10116;53.112;7.356;2023-04-24T02:02:04;0.40;;;0.40;;
19907;SDS011;10116;53.112;7.356;2023-04-24T02:04:30;0.40;;;0.37;;
19907;SDS011;10116;53.112;7.356;2023-04-24T02:06:56;0.40;;;0.40;;
19907;SDS011;10116;53.112;7.356;2023-04-24T02:09:22;0.40;;;0.30;;
19907;SDS011;10116;53.112;7.356;2023-04-24T02:11:47;0.60;;;0.30;;
19907;SDS011;10116;53.112;7.356;2023-04-24T02:14:13;0.40;;;0.40;;
19907;SDS011;10116;53.112;7.356;2023-04-24T02:16:39;0.40;;;0.30;;
19907;SDS011;10116;53.112;7.356;2023-04-24T02:19:05;0.40;;;0.37;;
19907;SDS011;10116;53.112;7.356;2023-04-24T02:21:30;0.50;;;0.50;;
19907;SDS011;10116;53.112;7.356;2023-04-24T02:23:56;0.50;;;0.40;;
19907;SDS011;10116;53.112;7.356;2023-04-24T02:26:22;0.90;;;0.40;;
19907;SDS011;10116;53.112;7.356;2023-04-24T02:28:48;1.23;;;0.40;;
19907;SDS011;10116;53.112;7.356;2023-04-24T02:31:13;0.50;;;0.43;;
19907;SDS011;10116;53.112;7.356;2023-04-24T02:33:39;0.50;;;0.40;;
19907;SDS011;10116;53.112;7.356;2023-04-24T02:36:05;0.47;;;0.47;;
19907;SDS011;10116;53.112;7.356;2023-04-24T02:38:31;0.40;;;0.30;;
19907;SDS011;10116;53.112;7.356;2023-04-24T02:40:56;0.40;;;0.40;;
19907;SDS011;10116;53.112;7.356;2023-04-24T02:43:22;1.20;;;0.40;;
19907;SDS011;10116;53.112;7.356;2023-04-24T02:45:47;0.40;;;0.40;;
19907;SDS011;10116;53.112;7.356;2023-04-24T02:48:13;0.50;;;0.50;;
19907;SDS011;10116;53.112;7.356;2023-04-24T02:50:39;0.50;;;0.40;;
19907;SDS011;10116;53.112;7.356;2023-04-24T02:53:05;0.40;;;0.30;;
19907;SDS011;10116;53.112;7.356;2023-04-24T02:55:30;0.40;;;0.40;;
19907;SDS011;10116;53.112;7.356;2023-04-24T02:57:56;0.50;;;0.50;;
19907;SDS011;10116;53.112;7.356;2023-04-24T03:00:22;0.40;;;0.33;;
19907;SDS011;10116;53.112;7.356;2023-04-24T03:02:47;0.40;;;0.37;;
19907;SDS011;10116;53.112;7.356;2023-04-24T03:05:14;0.60;;;0.40;;
19907;SDS011;10116;53.112;7.356;2023-04-24T03:07:40;0.70;;;0.40;;
19907;SDS011;10116;53.112;7.356;2023-04-24T03:10:06;0.50;;;0.40;;
19907;SDS011;10116;53.112;7.356;2023-04-24T03:12:32;0.40;;;0.37;;
19907;SDS011;10116;53.112;7.356;2023-04-24T03:14:58;0.40;;;0.40;;
19907;SDS011;10116;53.112;7.356;2023-04-24T03:17:23;1.50;;;0.40;;
19907;SDS011;10116;53.112;7.356;2023-04-24T03:19:49;0.40;;;0.30;;
19907;SDS011;10116;53.112;7.356;2023-04-24T03:22:15;0.73;;;0.40;;
19907;SDS011;10116;53.112;7.356;2023-04-24T03:24:40;0.50;;;0.40;;
19907;SDS011;10116;53.112;7.356;2023-04-24T03:27:06;0.50;;;0.30;;
19907;SDS011;10116;53.112;7.356;2023-04-24T03:29:32;0.40;;;0.40;;
19907;SDS011;10116;53.112;7.356;2023-04-24T03:31:57;0.60;;;0.50;;
19907;SDS011;10116;53.112;7.356;2023-04-24T03:34:23;0.40;;;0.40;;
19907;SDS011;10116;53.112;7.356;2023-04-24T03:36:49;0.40;;;0.37;;
19907;SDS011;10116;53.112;7.356;2023-04-24T03:39:14;0.50;;;0.30;;
19907;SDS011;10116;53.112;7.356;2023-04-24T03:41:40;0.50;;;0.40;;
19907;SDS011;10116;53.112;7.356;2023-04-24T03:44:05;0.40;;;0.37;;
19907;SDS011;10116;53.112;7.356;2023-04-24T03:46:31;0.50;;;0.30;;
19907;SDS011;10116;53.112;7.356;2023-04-24T03:48:59;0.40;;;0.40;;
19907;SDS011;10116;53.112;7.356;2023-04-24T03:51:25;0.40;;;0.40;;
19907;SDS011;10116;53.112;7.356;2023-04-24T03:53:52;0.50;;;0.40;;
19907;SDS011;10116;53.112;7.356;2023-04-24T03:56:18;0.40;;;0.40;;
19907;SDS011;10116;53.112;7.356;2023-04-24T03:58:44;0.40;;;0.30;;
19907;SDS011;10116;53.112;7.356;2023-04-24T04:01:10;0.60;;;0.30;;
19907;SDS011;10116;53.112;7.356;2023-04-24T04:03:36;0.40;;;0.30;;
19907;SDS011;10116;53.112;7.356;2023-04-24T04:06:02;0.50;;;0.40;;
19907;SDS011;10116;53.112;7.356;2023-04-24T04:08:28;0.50;;;0.40;;
19907;SDS011;10116;53.112;7.356;2023-04-24T04:10:53;0.40;;;0.30;;
19907;SDS011;10116;53.112;7.356;2023-04-24T04:13:19;0.40;;;0.30;;
19907;SDS011;10116;53.112;7.356;2023-04-24T04:15:45;0.50;;;0.40;;
19907;SDS011;10116;53.112;7.356;2023-04-24T04:18:10;2.00;;;0.30;;
19907;SDS011;10116;53.112;7.356;2023-04-24T04:20:36;0.40;;;0.30;;
19907;SDS011;10116;53.112;7.356;2023-04-24T04:23:02;0.50;;;0.40;;
19907;SDS011;10116;53.112;7.356;2023-04-24T04:25:27;0.57;;;0.40;;
19907;SDS011;10116;53.112;7.356;2023-04-24T04:27:54;1.03;;;0.37;;
19907;SDS011;10116;53.112;7.356;2023-04-24T04:30:20;0.40;;;0.30;;
19907;SDS011;10116;53.112;7.356;2023-04-24T04:32:46;0.50;;;0.30;;
19907;SDS011;10116;53.112;7.356;2023-04-24T04:35:12;0.50;;;0.40;;
19907;SDS011;10116;53.112;7.356;2023-04-24T04:37:37;0.50;;;0.40;;
19907;SDS011;10116;53.112;7.356;2023-04-24T04:40:03;0.70;;;0.40;;
19907;SDS011;10116;53.112;7.356;2023-04-24T04:42:31;0.40;;;0.30;;
19907;SDS011;10116;53.112;7.356;2023-04-24T04:44:58;0.40;;;0.30;;
19907;SDS011;10116;53.112;7.356;2023-04-24T04:47:24;1.13;;;0.30;;
19907;SDS011;10116;53.112;7.356;2023-04-24T04:49:51;7.47;;;0.70;;
19907;SDS011;10116;53.112;7.356;2023-04-24T04:52:17;9.10;;;0.77;;
19907;SDS011;10116;53.112;7.356;2023-04-24T04:54:43;3.93;;;0.80;;
19907;SDS011;10116;53.112;7.356;2023-04-24T04:57:09;3.37;;;0.60;;
19907;SDS011;10116;53.112;7.356;2023-04-24T04:59:35;1.57;;;0.97;;
19907;SDS011;10116;53.112;7.356;2023-04-24T05:02:02;2.60;;;0.70;;
19907;SDS011;10116;53.112;7.356;2023-04-24T05:04:27;4.40;;;0.70;;
19907;SDS011;10116;53.112;7.356;2023-04-24T05:06:53;6.20;;;1.47;;
19907;SDS011;10116;53.112;7.356;2023-04-24T05:09:18;0.97;;;0.70;;
19907;SDS011;10116;53.112;7.356;2023-04-24T05:11:44;3.17;;;0.70;;
19907;SDS011;10116;53.112;7.356;2023-04-24T05:14:10;3.17;;;0.70;;
19907;SDS011;10116;53.112;7.356;2023-04-24T05:16:37;2.07;;;1.30;;
19907;SDS011;10116;53.112;7.356;2023-04-24T05:19:03;2.03;;;0.87;;
19907;SDS011;10116;53.112;7.356;2023-04-24T05:21:29;4.90;;;0.73;;
19907;SDS011;10116;53.112;7.356;2023-04-24T05:23:55;3.90;;;0.80;;
19907;SDS011;10116;53.112;7.356;2023-04-24T05:26:22;0.60;;;0.60;;
19907;SDS011;10116;53.112;7.356;2023-04-24T05:28:48;8.43;;;1.40;;
19907;SDS011;10116;53.112;7.356;2023-04-24T05:31:13;2.00;;;0.80;;
19907;SDS011;10116;53.112;7.356;2023-04-24T05:33:39;2.60;;;0.77;;
19907;SDS011;10116;53.112;7.356;2023-04-24T05:36:05;3.93;;;1.00;;
19907;SDS011;10116;53.112;7.356;2023-04-24T05:38:31;1.97;;;0.90;;
19907;SDS011;10116;53.112;7.356;2023-04-24T05:40:57;3.67;;;0.60;;
19907;SDS011;10116;53.112;7.356;2023-04-24T05:43:22;1.70;;;0.50;;
19907;SDS011;10116;53.112;7.356;2023-04-24T05:45:48;3.00;;;0.70;;
19907;SDS011;10116;53.112;7.356;2023-04-24T05:48:14;0.90;;;0.60;;
19907;SDS011;10116;53.112;7.356;2023-04-24T05:50:39;1.53;;;0.80;;
19907;SDS011;10116;53.112;7.356;2023-04-24T05:53:05;1.43;;;0.70;;
19907;SDS011;10116;53.112;7.356;2023-04-24T05:55:32;0.80;;;0.50;;
19907;SDS011;10116;53.112;7.356;2023-04-24T05:57:58;0.50;;;0.50;;
19907;SDS011;10116;53.112;7.356;2023-04-24T06:00:24;2.40;;;0.60;;
19907;SDS011;10116;53.112;7.356;2023-04-24T06:02:50;0.83;;;0.67;;
19907;SDS011;10116;53.112;7.356;2023-04-24T06:05:16;1.80;;;0.60;;
19907;SDS011;10116;53.112;7.356;2023-04-24T06:07:42;0.80;;;0.80;;
19907;SDS011;10116;53.112;7.356;2023-04-24T06:10:08;3.87;;;0.70;;
19907;SDS011;10116;53.112;7.356;2023-04-24T06:12:34;0.40;;;0.40;;
19907;SDS011;10116;53.112;7.356;2023-04-24T06:15:00;2.30;;;0.60;;
19907;SDS011;10116;53.112;7.356;2023-04-24T06:17:26;3.27;;;0.50;;
19907;SDS011;10116;53.112;7.356;2023-04-24T06:19:51;0.63;;;0.50;;
19907;SDS011;10116;53.112;7.356;2023-04-24T06:22:17;1.67;;;0.70;;
19907;SDS011;10116;53.112;7.356;2023-04-24T06:24:42;1.00;;;0.57;;
19907;SDS011;10116;53.112;7.356;2023-04-24T06:27:08;4.73;;;0.40;;
19907;SDS011;10116;53.112;7.356;2023-04-24T06:29:35;0.70;;;0.70;;
19907;SDS011;10116;53.112;7.356;2023-04-24T06:32:01;0.40;;;0.40;;
19907;SDS011;10116;53.112;7.356;2023-04-24T06:34:26;1.53;;;0.50;;
19907;SDS011;10116;53.112;7.356;2023-04-24T06:36:52;1.27;;;0.40;;
19907;SDS011;10116;53.112;7.356;2023-04-24T06:39:19;0.40;;;0.40;;
19907;SDS011;10116;53.112;7.356;2023-04-24T06:41:44;0.50;;;0.40;;
19907;SDS011;10116;53.112;7.356;2023-04-24T06:44:10;0.40;;;0.40;;
19907;SDS011;10116;53.112;7.356;2023-04-24T06:46:35;1.37;;;0.50;;
19907;SDS011;10116;53.112;7.356;2023-04-24T06:49:01;0.60;;;0.30;;
19907;SDS011;10116;53.112;7.356;2023-04-24T06:51:26;0.50;;;0.50;;
19907;SDS011;10116;53.112;7.356;2023-04-24T06:53:53;0.40;;;0.30;;
19907;SDS011;10116;53.112;7.356;2023-04-24T06:56:19;0.40;;;0.30;;
19907;SDS011;10116;53.112;7.356;2023-04-24T06:58:45;0.40;;;0.30;;
19907;SDS011;10116;53.112;7.356;2023-04-24T07:01:11;0.50;;;0.30;;
19907;SDS011;10116;53.112;7.356;2023-04-24T07:03:37;0.40;;;0.30;;
19907;SDS011;10116;53.112;7.356;2023-04-24T07:06:03;0.50;;;0.30;;
19907;SDS011;10116;53.112;7.356;2023-04-24T07:08:30;0.50;;;0.40;;
19907;SDS011;10116;53.112;7.356;2023-04-24T07:10:56;1.63;;;0.50;;
19907;SDS011;10116;53.112;7.356;2023-04-24T07:13:22;0.60;;;0.40;;
19907;SDS011;10116;53.112;7.356;2023-04-24T07:15:48;0.47;;;0.40;;
19907;SDS011;10116;53.112;7.356;2023-04-24T07:18:19;1.63;;;0.40;;
19907;SDS011;10116;53.112;7.356;2023-04-24T07:20:45;3.13;;;0.40;;
19907;SDS011;10116;53.112;7.356;2023-04-24T07:23:10;0.40;;;0.30;;
19907;SDS011;10116;53.112;7.356;2023-04-24T07:25:36;0.50;;;0.33;;
19907;SDS011;10116;53.112;7.356;2023-04-24T07:28:03;0.40;;;0.40;;
19907;SDS011;10116;53.112;7.356;2023-04-24T07:30:29;0.50;;;0.40;;
19907;SDS011;10116;53.112;7.356;2023-04-24T07:32:55;0.50;;;0.30;;
19907;SDS011;10116;53.112;7.356;2023-04-24T07:35:21;0.80;;;0.47;;
19907;SDS011;10116;53.112;7.356;2023-04-24T07:37:47;0.50;;;0.37;;
19907;SDS011;10116;53.112;7.356;2023-04-24T07:40:13;0.40;;;0.40;;
19907;SDS011;10116;53.112;7.356;2023-04-24T07:42:39;0.50;;;0.40;;
19907;SDS011;10116;53.112;7.356;2023-04-24T07:45:04;0.40;;;0.40;;
19907;SDS011;10116;53.112;7.356;2023-04-24T07:47:31;0.50;;;0.40;;
19907;SDS011;10116;53.112;7.356;2023-04-24T07:49:57;2.30;;;0.50;;
19907;SDS011;10116;53.112;7.356;2023-04-24T07:52:23;0.60;;;0.30;;
19907;SDS011;10116;53.112;7.356;2023-04-24T07:54:49;1.03;;;0.50;;
19907;SDS011;10116;53.112;7.356;2023-04-24T07:57:15;0.50;;;0.40;;
19907;SDS011;10116;53.112;7.356;2023-04-24T07:59:41;0.40;;;0.30;;
19907;SDS011;10116;53.112;7.356;2023-04-24T08:02:07;0.70;;;0.40;;
19907;SDS011;10116;53.112;7.356;2023-04-24T08:04:33;0.60;;;0.50;;
19907;SDS011;10116;53.112;7.356;2023-04-24T08:06:58;1.00;;;0.40;;
19907;SDS011;10116;53.112;7.356;2023-04-24T08:09:24;0.50;;;0.40;;
19907;SDS011;10116;53.112;7.356;2023-04-24T08:11:50;0.50;;;0.40;;
19907;SDS011;10116;53.112;7.356;2023-04-24T08:14:15;0.50;;;0.40;;
19907;SDS011;10116;53.112;7.356;2023-04-24T08:16:41;2.00;;;0.40;;
19907;SDS011;10116;53.112;7.356;2023-04-24T08:19:07;3.60;;;0.60;;
19907;SDS011;10116;53.112;7.356;2023-04-24T08:21:33;0.70;;;0.70;;
19907;SDS011;10116;53.112;7.356;2023-04-24T08:23:58;0.60;;;0.50;;
19907;SDS011;10116;53.112;7.356;2023-04-24T08:26:24;0.77;;;0.30;;
19907;SDS011;10116;53.112;7.356;2023-04-24T08:28:51;0.60;;;0.40;;
19907;SDS011;10116;53.112;7.356;2023-04-24T08:31:16;1.10;;;0.50;;
19907;SDS011;10116;53.112;7.356;2023-04-24T08:33:42;0.50;;;0.30;;
19907;SDS011;10116;53.112;7.356;2023-04-24T08:36:09;0.40;;;0.40;;
19907;SDS011;10116;53.112;7.356;2023-04-24T08:38:35;0.40;;;0.37;;
19907;SDS011;10116;53.112;7.356;2023-04-24T08:41:01;0.60;;;0.40;;
19907;SDS011;10116;53.112;7.356;2023-04-24T08:43:27;1.60;;;0.50;;
19907;SDS011;10116;53.112;7.356;2023-04-24T08:45:54;0.40;;;0.40;;
19907;SDS011;10116;53.112;7.356;2023-04-24T08:48:22;0.40;;;0.40;;
19907;SDS011;10116;53.112;7.356;2023-04-24T08:50:48;0.50;;;0.40;;
19907;SDS011;10116;53.112;7.356;2023-04-24T08:53:15;2.10;;;0.40;;
19907;SDS011;10116;53.112;7.356;2023-04-24T08:55:42;0.70;;;0.50;;
19907;SDS011;10116;53.112;7.356;2023-04-24T08:58:11;0.40;;;0.40;;
19907;SDS011;10116;53.112;7.356;2023-04-24T09:00:38;0.90;;;0.50;;
19907;SDS011;10116;53.112;7.356;2023-04-24T09:03:04;3.53;;;0.77;;
19907;SDS011;10116;53.112;7.356;2023-04-24T09:05:31;0.87;;;0.53;;
19907;SDS011;10116;53.112;7.356;2023-04-24T09:07:58;0.50;;;0.40;;
19907;SDS011;10116;53.112;7.356;2023-04-24T09:10:26;0.43;;;0.40;;
19907;SDS011;10116;53.112;7.356;2023-04-24T09:12:55;0.40;;;0.40;;
19907;SDS011;10116;53.112;7.356;2023-04-24T09:15:24;0.40;;;0.40;;
19907;SDS011;10116;53.112;7.356;2023-04-24T09:17:49;0.40;;;0.40;;
19907;SDS011;10116;53.112;7.356;2023-04-24T09:20:15;0.90;;;0.40;;
19907;SDS011;10116;53.112;7.356;2023-04-24T09:22:41;0.40;;;0.40;;
19907;SDS011;10116;53.112;7.356;2023-04-24T09:25:08;0.40;;;0.40;;
19907;SDS011;10116;53.112;7.356;2023-04-24T09:27:38;0.60;;;0.50;;
19907;SDS011;10116;53.112;7.356;2023-04-24T09:30:08;0.40;;;0.37;;
19907;SDS011;10116;53.112;7.356;2023-04-24T09:32:34;0.50;;;0.50;;
19907;SDS011;10116;53.112;7.356;2023-04-24T09:37:40;0.93;;;0.40;;
19907;SDS011;10116;53.112;7.356;2023-04-24T09:40:17;0.50;;;0.50;;
19907;SDS011;10116;53.112;7.356;2023-04-24T09:42:54;0.50;;;0.40;;
19907;SDS011;10116;53.112;7.356;2023-04-24T09:45:21;0.60;;;0.47;;
19907;SDS011;10116;53.112;7.356;2023-04-24T09:47:52;0.50;;;0.40;;
19907;SDS011;10116;53.112;7.356;2023-04-24T09:50:20;0.53;;;0.43;;
19907;SDS011;10116;53.112;7.356;2023-04-24T09:52:47;0.97;;;0.50;;
19907;SDS011;10116;53.112;7.356;2023-04-24T09:55:22;0.57;;;0.57;;
19907;SDS011;10116;53.112;7.356;2023-04-24T09:57:57;0.50;;;0.40;;
19907;SDS011;10116;53.112;7.356;2023-04-24T10:00:31;0.50;;;0.47;;
19907;SDS011;10116;53.112;7.356;2023-04-24T10:03:03;0.50;;;0.50;;
19907;SDS011;10116;53.112;7.356;2023-04-24T10:05:30;2.73;;;0.70;;
19907;SDS011;10116;53.112;7.356;2023-04-24T10:08:03;4.07;;;1.43;;
19907;SDS011;10116;53.112;7.356;2023-04-24T10:10:30;5.13;;;0.90;;
19907;SDS011;10116;53.112;7.356;2023-04-24T10:12:57;3.03;;;1.10;;
19907;SDS011;10116;53.112;7.356;2023-04-24T10:15:24;6.20;;;1.10;;
19907;SDS011;10116;53.112;7.356;2023-04-24T10:17:51;11.80;;;1.17;;
19907;SDS011;10116;53.112;7.356;2023-04-24T10:20:20;1.73;;;1.23;;
19907;SDS011;10116;53.112;7.356;2023-04-24T10:22:47;0.97;;;0.97;;
19907;SDS011;10116;53.112;7.356;2023-04-24T10:25:18;3.60;;;1.30;;
19907;SDS011;10116;53.112;7.356;2023-04-24T10:27:45;1.87;;;1.00;;
19907;SDS011;10116;53.112;7.356;2023-04-24T10:30:11;6.47;;;1.10;;
19907;SDS011;10116;53.112;7.356;2023-04-24T10:32:38;2.97;;;1.10;;
19907;SDS011;10116;53.112;7.356;2023-04-24T10:35:03;1.30;;;0.97;;
19907;SDS011;10116;53.112;7.356;2023-04-24T10:37:33;3.47;;;1.43;;
19907;SDS011;10116;53.112;7.356;2023-04-24T10:40:11;2.73;;;1.33;;
19907;SDS011;10116;53.112;7.356;2023-04-24T10:42:42;1.10;;;0.70;;
19907;SDS011;10116;53.112;7.356;2023-04-24T10:45:21;2.43;;;1.30;;
19907;SDS011;10116;53.112;7.356;2023-04-24T10:48:06;1.83;;;1.37;;
19907;SDS011;10116;53.112;7.356;2023-04-24T10:50:44;2.50;;;1.33;;
19907;SDS011;10116;53.112;7.356;2023-04-24T10:53:18;2.17;;;1.50;;
19907;SDS011;10116;53.112;7.356;2023-04-24T10:55:51;1.60;;;1.50;;
19907;SDS011;10116;53.112;7.356;2023-04-24T10:58:22;2.40;;;1.40;;
19907;SDS011;10116;53.112;7.356;2023-04-24T11:01:00;2.87;;;1.20;;
19907;SDS011;10116;53.112;7.356;2023-04-24T11:03:28;1.33;;;1.30;;
19907;SDS011;10116;53.112;7.356;2023-04-24T11:05:59;1.97;;;1.60;;
19907;SDS011;10116;53.112;7.356;2023-04-24T11:11:14;3.47;;;2.20;;
19907;SDS011;10116;53.112;7.356;2023-04-24T11:19:00;1.77;;;1.67;;
19907;SDS011;10116;53.112;7.356;2023-04-24T11:21:31;1.60;;;1.50;;
19907;SDS011;10116;53.112;7.356;2023-04-24T11:24:25;2.50;;;1.83;;
19907;SDS011;10116;53.112;7.356;2023-04-24T11:26:51;3.30;;;1.70;;
19907;SDS011;10116;53.112;7.356;2023-04-24T11:29:19;6.57;;;1.73;;
19907;SDS011;10116;53.112;7.356;2023-04-24T11:31:45;1.73;;;1.63;;
19907;SDS011;10116;53.112;7.356;2023-04-24T11:34:16;1.90;;;1.47;;
19907;SDS011;10116;53.112;7.356;2023-04-24T11:36:43;1.73;;;1.63;;
19907;SDS011;10116;53.112;7.356;2023-04-24T11:39:12;1.50;;;1.40;;
19907;SDS011;10116;53.112;7.356;2023-04-24T11:41:39;3.00;;;1.60;;
19907;SDS011;10116;53.112;7.356;2023-04-24T11:44:06;1.97;;;1.57;;
19907;SDS011;10116;53.112;7.356;2023-04-24T11:46:32;2.30;;;1.80;;
19907;SDS011;10116;53.112;7.356;2023-04-24T11:48:58;1.90;;;1.80;;
19907;SDS011;10116;53.112;7.356;2023-04-24T11:51:25;1.40;;;1.30;;
19907;SDS011;10116;53.112;7.356;2023-04-24T11:53:55;1.77;;;1.43;;
19907;SDS011;10116;53.112;7.356;2023-04-24T11:56:22;7.07;;;1.70;;
19907;SDS011;10116;53.112;7.356;2023-04-24T11:58:48;2.27;;;1.60;;
19907;SDS011;10116;53.112;7.356;2023-04-24T12:01:16;4.10;;;1.70;;
19907;SDS011;10116;53.112;7.356;2023-04-24T12:03:46;6.00;;;2.00;;
19907;SDS011;10116;53.112;7.356;2023-04-24T12:06:13;3.80;;;1.60;;
19907;SDS011;10116;53.112;7.356;2023-04-24T12:08:38;2.13;;;1.73;;
19907;SDS011;10116;53.112;7.356;2023-04-24T12:11:05;6.50;;;2.30;;
19907;SDS011;10116;53.112;7.356;2023-04-24T12:13:35;2.70;;;1.87;;
19907;SDS011;10116;53.112;7.356;2023-04-24T12:16:03;2.10;;;1.53;;
19907;SDS011;10116;53.112;7.356;2023-04-24T12:18:30;2.97;;;1.60;;
19907;SDS011;10116;53.112;7.356;2023-04-24T12:21:13;6.10;;;1.80;;
19907;SDS011;10116;53.112;7.356;2023-04-24T12:23:59;1.80;;;1.40;;
19907;SDS011;10116;53.112;7.356;2023-04-24T12:26:24;2.10;;;1.60;;
19907;SDS011;10116;53.112;7.356;2023-04-24T12:28:52;1.83;;;1.70;;
19907;SDS011;10116;53.112;7.356;2023-04-24T12:31:20;1.67;;;1.53;;
19907;SDS011;10116;53.112;7.356;2023-04-24T12:33:47;2.67;;;1.63;;
19907;SDS011;10116;53.112;7.356;2023-04-24T12:36:12;2.70;;;1.47;;
19907;SDS011;10116;53.112;7.356;2023-04-24T12:38:38;3.60;;;1.60;;
19907;SDS011;10116;53.112;7.356;2023-04-24T12:41:10;2.77;;;1.60;;
19907;SDS011;10116;53.112;7.356;2023-04-24T12:43:37;2.13;;;1.50;;
19907;SDS011;10116;53.112;7.356;2023-04-24T12:46:03;4.40;;;1.63;;
19907;SDS011;10116;53.112;7.356;2023-04-24T12:48:29;3.23;;;1.60;;
19907;SDS011;10116;53.112;7.356;2023-04-24T12:50:58;3.40;;;1.53;;
19907;SDS011;10116;53.112;7.356;2023-04-24T12:53:26;1.50;;;1.40;;
19907;SDS011;10116;53.112;7.356;2023-04-24T12:55:54;1.53;;;1.43;;
19907;SDS011;10116;53.112;7.356;2023-04-24T12:58:20;2.00;;;1.57;;
19907;SDS011;10116;53.112;7.356;2023-04-24T13:00:46;2.80;;;1.60;;
19907;SDS011;10116;53.112;7.356;2023-04-24T13:03:12;1.77;;;1.40;;
19907;SDS011;10116;53.112;7.356;2023-04-24T13:05:38;2.20;;;1.40;;
19907;SDS011;10116;53.112;7.356;2023-04-24T13:08:04;1.47;;;1.37;;
19907;SDS011;10116;53.112;7.356;2023-04-24T13:10:30;1.00;;;1.00;;
19907;SDS011;10116;53.112;7.356;2023-04-24T13:12:56;2.40;;;1.80;;
19907;SDS011;10116;53.112;7.356;2023-04-24T13:15:22;1.70;;;1.50;;
19907;SDS011;10116;53.112;7.356;2023-04-24T13:17:47;1.90;;;1.70;;
19907;SDS011;10116;53.112;7.356;2023-04-24T13:20:13;4.37;;;1.43;;
19907;SDS011;10116;53.112;7.356;2023-04-24T13:22:38;1.37;;;1.20;;
19907;SDS011;10116;53.112;7.356;2023-04-24T13:25:04;2.53;;;1.33;;
19907;SDS011;10116;53.112;7.356;2023-04-24T13:27:34;1.73;;;1.50;;
19907;SDS011;10116;53.112;7.356;2023-04-24T13:29:59;1.47;;;1.40;;
19907;SDS011;10116;53.112;7.356;2023-04-24T13:32:25;2.50;;;1.40;;
19907;SDS011;10116;53.112;7.356;2023-04-24T13:34:51;1.10;;;0.87;;
19907;SDS011;10116;53.112;7.356;2023-04-24T13:37:17;3.23;;;1.40;;
19907;SDS011;10116;53.112;7.356;2023-04-24T13:39:42;1.40;;;1.20;;
19907;SDS011;10116;53.112;7.356;2023-04-24T13:42:08;4.20;;;1.50;;
19907;SDS011;10116;53.112;7.356;2023-04-24T13:44:34;3.80;;;1.40;;
19907;SDS011;10116;53.112;7.356;2023-04-24T13:46:59;1.33;;;0.93;;
19907;SDS011;10116;53.112;7.356;2023-04-24T13:49:25;1.30;;;1.20;;
19907;SDS011;10116;53.112;7.356;2023-04-24T13:51:52;1.40;;;1.30;;
19907;SDS011;10116;53.112;7.356;2023-04-24T13:54:18;2.53;;;1.50;;
19907;SDS011;10116;53.112;7.356;2023-04-24T13:56:44;1.70;;;1.30;;
19907;SDS011;10116;53.112;7.356;2023-04-24T13:59:11;1.97;;;1.57;;
19907;SDS011;10116;53.112;7.356;2023-04-24T14:01:39;1.20;;;1.10;;
19907;SDS011;10116;53.112;7.356;2023-04-24T14:04:05;1.70;;;1.60;;
19907;SDS011;10116;53.112;7.356;2023-04-24T14:06:30;4.27;;;3.03;;
19907;SDS011;10116;53.112;7.356;2023-04-24T14:08:57;7.20;;;4.17;;
19907;SDS011;10116;53.112;7.356;2023-04-24T14:11:22;11.17;;;4.83;;
19907;SDS011;10116;53.112;7.356;2023-04-24T14:13:48;9.70;;;5.20;;
19907;SDS011;10116;53.112;7.356;2023-04-24T14:16:30;10.63;;;4.57;;
19907;SDS011;10116;53.112;7.356;2023-04-24T14:18:56;11.07;;;5.17;;
19907;SDS011;10116;53.112;7.356;2023-04-24T14:21:21;9.47;;;4.47;;
19907;SDS011;10116;53.112;7.356;2023-04-24T14:23:47;6.37;;;3.70;;
19907;SDS011;10116;53.112;7.356;2023-04-24T14:26:13;8.17;;;3.57;;
19907;SDS011;10116;53.112;7.356;2023-04-24T14:28:38;10.27;;;4.30;;
19907;SDS011;10116;53.112;7.356;2023-04-24T14:31:04;9.67;;;3.70;;
19907;SDS011;10116;53.112;7.356;2023-04-24T14:33:30;10.13;;;4.17;;
19907;SDS011;10116;53.112;7.356;2023-04-24T14:35:58;5.43;;;3.07;;
19907;SDS011;10116;53.112;7.356;2023-04-24T14:38:24;4.60;;;2.80;;
19907;SDS011;10116;53.112;7.356;2023-04-24T14:40:50;7.50;;;2.90;;
19907;SDS011;10116;53.112;7.356;2023-04-24T14:43:15;4.50;;;3.17;;
19907;SDS011;10116;53.112;7.356;2023-04-24T14:45:41;6.60;;;3.30;;
19907;SDS011;10116;53.112;7.356;2023-04-24T14:48:07;3.80;;;2.80;;
19907;SDS011;10116;53.112;7.356;2023-04-24T14:50:36;4.27;;;2.73;;
19907;SDS011;10116;53.112;7.356;2023-04-24T14:53:01;5.37;;;2.70;;
19907;SDS011;10116;53.112;7.356;2023-04-24T14:55:27;4.70;;;2.40;;